Time;durP1;ratioP1;P1;durP2;ratioP2;P2;SDS_P1;SDS_P2;PMS_P1;PMS_P2;Temp;Humidity;BMP_temperature;BMP_pressure;BME280_temperature;BME280_humidity;BME280_pressure;Samples;Min_cycle;Max_cycle;Signal;HPM_P1;HPM_P2
2021/09/04 00:00:27;;;;;;;8.88;8.00;;;;;;;;;;5045997;28;20666;-83
2021/09/04 00:02:53;;;;;;;8.00;7.20;;;;;;;;;;5048402;28;20449;-84
2021/09/04 00:05:19;;;;;;;9.18;7.93;;;;;;;;;;5047123;28;20442;-83
2021/09/04 00:07:45;;;;;;;10.48;7.93;;;;;;;;;;5047091;28;20197;-83
2021/09/04 00:10:12;;;;;;;9.38;8.13;;;;;;;;;;5045938;28;20228;-83
2021/09/04 00:12:39;;;;;;;9.95;8.55;;;;;;;;;;5042021;28;20216;-83
2021/09/04 00:15:05;;;;;;;9.85;8.63;;;;;;;;;;5048047;28;20175;-83
2021/09/04 00:17:31;;;;;;;8.80;8.00;;;;;;;;;;5045673;28;20195;-84
2021/09/04 00:19:57;;;;;;;9.50;8.57;;;;;;;;;;5045043;28;20233;-83
2021/09/04 00:22:23;;;;;;;9.40;8.02;;;;;;;;;;5047846;28;20434;-84
2021/09/04 00:24:49;;;;;;;8.10;6.83;;;;;;;;;;5043793;28;20179;-84
2021/09/04 00:27:15;;;;;;;8.87;8.00;;;;;;;;;;5062551;28;20422;-83
2021/09/04 00:29:41;;;;;;;12.75;8.65;;;;;;;;;;5047630;28;20407;-84
2021/09/04 00:32:07;;;;;;;8.60;7.70;;;;;;;;;;5046772;28;20243;-83
2021/09/04 00:34:33;;;;;;;8.93;7.05;;;;;;;;;;5045607;28;20412;-84
2021/09/04 00:36:59;;;;;;;9.23;7.60;;;;;;;;;;5044354;28;20679;-83
2021/09/04 00:39:25;;;;;;;9.07;7.67;;;;;;;;;;5042213;28;20434;-83
2021/09/04 00:41:51;;;;;;;8.80;7.90;;;;;;;;;;5056555;28;20475;-83
2021/09/04 00:44:19;;;;;;;7.75;6.95;;;;;;;;;;5053537;28;20195;-83
2021/09/04 00:46:45;;;;;;;10.40;7.53;;;;;;;;;;5053178;28;20175;-83
2021/09/04 00:49:11;;;;;;;8.55;7.68;;;;;;;;;;5055995;28;20210;-83
2021/09/04 00:51:37;;;;;;;8.52;7.72;;;;;;;;;;5057302;28;20191;-83
2021/09/04 00:54:03;;;;;;;8.50;7.60;;;;;;;;;;5062492;28;20206;-83
2021/09/04 00:56:29;;;;;;;8.70;7.00;;;;;;;;;;5046456;28;20260;-83
2021/09/04 00:58:55;;;;;;;8.73;7.93;;;;;;;;;;5047579;28;20199;-83
2021/09/04 01:01:21;;;;;;;8.90;8.00;;;;;;;;;;5044267;28;20581;-83
2021/09/04 01:03:48;;;;;;;8.63;7.78;;;;;;;;;;5040761;28;20236;-84
2021/09/04 01:06:14;;;;;;;8.77;7.97;;;;;;;;;;5045589;28;20531;-83
2021/09/04 01:08:41;;;;;;;8.40;7.70;;;;;;;;;;5045254;28;20192;-84
2021/09/04 01:11:08;;;;;;;8.55;7.70;;;;;;;;;;5046162;28;20194;-83
2021/09/04 01:13:35;;;;;;;9.43;7.53;;;;;;;;;;5045418;28;20214;-83
2021/09/04 01:16:01;;;;;;;8.32;7.50;;;;;;;;;;5044342;28;20187;-83
2021/09/04 01:18:27;;;;;;;8.23;7.07;;;;;;;;;;5042327;28;20408;-83
2021/09/04 01:20:53;;;;;;;8.00;7.30;;;;;;;;;;5055718;28;20242;-83
2021/09/04 01:23:19;;;;;;;7.75;6.95;;;;;;;;;;5048259;28;20427;-84
2021/09/04 01:25:51;;;;;;;8.77;6.80;;;;;;;;;;5044735;28;20186;-84
2021/09/04 01:28:17;;;;;;;8.82;7.13;;;;;;;;;;5045645;28;20440;-84
2021/09/04 01:30:43;;;;;;;11.80;9.77;;;;;;;;;;5040201;28;20188;-83
2021/09/04 01:33:10;;;;;;;9.18;8.27;;;;;;;;;;5046792;28;20457;-84
2021/09/04 01:35:36;;;;;;;7.70;7.00;;;;;;;;;;5045172;28;20206;-83
2021/09/04 01:38:02;;;;;;;7.28;6.47;;;;;;;;;;5045269;28;20216;-83
2021/09/04 01:40:28;;;;;;;7.35;6.65;;;;;;;;;;5043935;28;20186;-83
2021/09/04 01:42:55;;;;;;;8.25;6.90;;;;;;;;;;5039506;28;20271;-83
2021/09/04 01:45:21;;;;;;;9.45;8.40;;;;;;;;;;5057022;28;20288;-84
2021/09/04 01:47:47;;;;;;;12.60;8.40;;;;;;;;;;5054469;28;20712;-83
2021/09/04 01:50:14;;;;;;;8.57;7.75;;;;;;;;;;5049251;28;20232;-83
2021/09/04 01:52:41;;;;;;;8.63;7.82;;;;;;;;;;5045723;28;20230;-83
2021/09/04 01:55:07;;;;;;;10.70;7.72;;;;;;;;;;5040761;28;20535;-83
2021/09/04 01:57:33;;;;;;;7.28;6.43;;;;;;;;;;5055285;28;20365;-84
2021/09/04 01:59:59;;;;;;;7.07;6.37;;;;;;;;;;5046338;28;20167;-83
2021/09/04 02:02:25;;;;;;;7.17;6.23;;;;;;;;;;5046658;28;20465;-83
2021/09/04 02:04:51;;;;;;;6.80;6.00;;;;;;;;;;5046259;28;20449;-83
2021/09/04 02:07:17;;;;;;;8.43;7.63;;;;;;;;;;5048591;28;20804;-83
2021/09/04 02:09:43;;;;;;;8.10;7.30;;;;;;;;;;5042576;28;20435;-83
2021/09/04 02:12:09;;;;;;;8.33;7.53;;;;;;;;;;5049812;28;20482;-83
2021/09/04 02:14:35;;;;;;;7.60;6.80;;;;;;;;;;5049374;28;20436;-83
2021/09/04 02:17:01;;;;;;;9.07;6.83;;;;;;;;;;5047937;28;20890;-83
2021/09/04 02:19:27;;;;;;;7.75;7.05;;;;;;;;;;5044528;28;20469;-83
2021/09/04 02:21:53;;;;;;;7.75;7.05;;;;;;;;;;5060742;28;20192;-83
2021/09/04 02:24:19;;;;;;;7.00;6.30;;;;;;;;;;5047169;28;20176;-83
2021/09/04 02:26:45;;;;;;;7.57;6.80;;;;;;;;;;5049239;28;20177;-83
2021/09/04 02:29:11;;;;;;;8.55;7.10;;;;;;;;;;5052648;28;20486;-83
2021/09/04 02:31:37;;;;;;;7.30;6.57;;;;;;;;;;5057159;28;20177;-84
2021/09/04 02:34:03;;;;;;;7.03;6.40;;;;;;;;;;5047446;28;20668;-84
2021/09/04 02:36:29;;;;;;;9.07;7.32;;;;;;;;;;5061403;28;20454;-83
2021/09/04 02:38:55;;;;;;;6.80;6.20;;;;;;;;;;5050249;28;20176;-83
2021/09/04 02:41:21;;;;;;;7.60;6.32;;;;;;;;;;5049633;28;20197;-83
2021/09/04 02:43:47;;;;;;;8.30;7.50;;;;;;;;;;5048747;28;20195;-83
2021/09/04 02:46:13;;;;;;;6.57;5.97;;;;;;;;;;5047781;28;20436;-84
2021/09/04 02:48:39;;;;;;;7.45;6.75;;;;;;;;;;5042587;28;20250;-84
2021/09/04 02:51:05;;;;;;;7.83;6.30;;;;;;;;;;5049529;28;20195;-83
2021/09/04 02:53:31;;;;;;;6.93;6.22;;;;;;;;;;5044132;28;20471;-83
2021/09/04 02:55:57;;;;;;;9.00;6.53;;;;;;;;;;5048588;28;20193;-82
2021/09/04 02:58:23;;;;;;;7.63;6.80;;;;;;;;;;5048674;28;20590;-84
2021/09/04 03:00:49;;;;;;;7.70;7.00;;;;;;;;;;5044491;28;20470;-84
2021/09/04 03:03:15;;;;;;;7.83;7.13;;;;;;;;;;5060791;28;20443;-83
2021/09/04 03:05:41;;;;;;;7.90;7.17;;;;;;;;;;5049511;28;20425;-84
2021/09/04 03:08:08;;;;;;;7.60;6.90;;;;;;;;;;5055395;28;20440;-83
2021/09/04 03:10:33;;;;;;;8.30;6.68;;;;;;;;;;5056689;28;20186;-83
2021/09/04 03:12:59;;;;;;;7.37;6.67;;;;;;;;;;5046762;28;20213;-84
2021/09/04 03:15:25;;;;;;;7.73;6.90;;;;;;;;;;5045862;28;20465;-84
2021/09/04 03:17:51;;;;;;;7.60;6.80;;;;;;;;;;5059716;28;20419;-84
2021/09/04 03:20:17;;;;;;;7.73;6.93;;;;;;;;;;5048427;28;20473;-83
2021/09/04 03:22:44;;;;;;;7.23;6.50;;;;;;;;;;5055462;28;20512;-83
2021/09/04 03:25:10;;;;;;;6.50;5.88;;;;;;;;;;5042403;28;20437;-84
2021/09/04 03:27:36;;;;;;;8.20;7.10;;;;;;;;;;5058104;28;20594;-83
2021/09/04 03:30:03;;;;;;;7.45;6.82;;;;;;;;;;5049898;28;20350;-84
2021/09/04 03:32:29;;;;;;;6.78;6.18;;;;;;;;;;5048723;28;20237;-83
2021/09/04 03:34:55;;;;;;;6.90;5.70;;;;;;;;;;5047750;28;20187;-83
2021/09/04 03:37:22;;;;;;;7.37;6.30;;;;;;;;;;5043338;28;20816;-84
2021/09/04 03:39:48;;;;;;;7.18;6.40;;;;;;;;;;5056751;28;20489;-83
2021/09/04 03:42:14;;;;;;;8.13;6.70;;;;;;;;;;5064642;28;20264;-82
2021/09/04 03:44:40;;;;;;;7.50;6.70;;;;;;;;;;5048864;28;20174;-83
2021/09/04 03:47:06;;;;;;;8.10;6.95;;;;;;;;;;5051212;28;20438;-84
2021/09/04 03:49:32;;;;;;;7.23;6.53;;;;;;;;;;5058881;28;20221;-84
2021/09/04 03:51:58;;;;;;;7.70;6.47;;;;;;;;;;5056072;28;20859;-83
2021/09/04 03:54:24;;;;;;;7.30;6.40;;;;;;;;;;5042860;28;20425;-83
2021/09/04 03:56:53;;;;;;;6.60;6.07;;;;;;;;;;5049790;28;20174;-83
2021/09/04 03:59:19;;;;;;;6.75;6.15;;;;;;;;;;5047444;28;20491;-83
2021/09/04 04:01:45;;;;;;;7.53;6.83;;;;;;;;;;5047733;28;20194;-83
2021/09/04 04:04:11;;;;;;;7.90;7.00;;;;;;;;;;5046526;28;20437;-82
2021/09/04 04:06:37;;;;;;;6.95;6.25;;;;;;;;;;5044480;28;20916;-83
2021/09/04 04:09:03;;;;;;;8.40;6.90;;;;;;;;;;5048044;28;20191;-83
2021/09/04 04:11:29;;;;;;;6.90;6.25;;;;;;;;;;5042505;28;20552;-83
2021/09/04 04:13:55;;;;;;;8.60;7.57;;;;;;;;;;5046622;28;20237;-84
2021/09/04 04:16:21;;;;;;;7.37;6.73;;;;;;;;;;5044504;28;20442;-83
2021/09/04 04:18:47;;;;;;;6.40;5.87;;;;;;;;;;5055911;28;20423;-84
2021/09/04 04:21:13;;;;;;;6.28;5.68;;;;;;;;;;5046549;28;20744;-83
2021/09/04 04:23:39;;;;;;;7.15;6.45;;;;;;;;;;5047390;28;20186;-84
2021/09/04 04:26:05;;;;;;;8.30;6.50;;;;;;;;;;5047221;28;20650;-83
2021/09/04 04:28:31;;;;;;;7.83;6.43;;;;;;;;;;5046890;28;20207;-83
2021/09/04 04:30:58;;;;;;;7.75;6.95;;;;;;;;;;5043108;28;20434;-83
2021/09/04 04:33:24;;;;;;;7.88;7.18;;;;;;;;;;5044036;28;20201;-83
2021/09/04 04:35:50;;;;;;;6.70;5.93;;;;;;;;;;5047820;28;20186;-83
2021/09/04 04:38:16;;;;;;;6.77;6.10;;;;;;;;;;5046254;28;20182;-83
2021/09/04 04:40:42;;;;;;;6.78;6.15;;;;;;;;;;5046407;28;20452;-84
2021/09/04 04:43:08;;;;;;;7.13;6.43;;;;;;;;;;5044448;28;20177;-83
2021/09/04 04:45:34;;;;;;;6.70;6.10;;;;;;;;;;5042347;28;20432;-83
2021/09/04 04:48:00;;;;;;;8.20;6.10;;;;;;;;;;5057292;28;20208;-83
2021/09/04 04:50:26;;;;;;;9.27;8.37;;;;;;;;;;5058425;28;20206;-83
2021/09/04 04:52:52;;;;;;;7.30;6.63;;;;;;;;;;5052445;28;20502;-83
2021/09/04 04:55:18;;;;;;;7.70;6.73;;;;;;;;;;5042502;28;20421;-83
2021/09/04 04:57:44;;;;;;;6.97;6.28;;;;;;;;;;5055506;28;20439;-83
2021/09/04 05:00:10;;;;;;;6.57;6.03;;;;;;;;;;5047045;28;20611;-84
2021/09/04 05:02:38;;;;;;;7.30;6.43;;;;;;;;;;5052994;28;20403;-83
2021/09/04 05:05:04;;;;;;;7.95;6.47;;;;;;;;;;5057439;28;20288;-84
2021/09/04 05:07:30;;;;;;;7.70;7.00;;;;;;;;;;5055874;28;20177;-83
2021/09/04 05:09:56;;;;;;;7.50;6.63;;;;;;;;;;5042686;28;20191;-83
2021/09/04 05:12:22;;;;;;;7.80;6.43;;;;;;;;;;5042778;28;20456;-84
2021/09/04 05:14:48;;;;;;;6.80;6.07;;;;;;;;;;5047891;28;20425;-83
2021/09/04 05:17:14;;;;;;;10.50;6.78;;;;;;;;;;5044420;28;20432;-83
2021/09/04 05:19:40;;;;;;;9.40;6.50;;;;;;;;;;5049028;28;20212;-84
2021/09/04 05:22:06;;;;;;;7.33;6.60;;;;;;;;;;5055533;28;20177;-84
2021/09/04 05:24:32;;;;;;;7.57;6.07;;;;;;;;;;5041809;28;21017;-83
2021/09/04 05:26:58;;;;;;;7.07;6.40;;;;;;;;;;5048589;28;20414;-83
2021/09/04 05:29:26;;;;;;;7.43;6.80;;;;;;;;;;5053703;28;20442;-83
2021/09/04 05:31:52;;;;;;;8.30;6.80;;;;;;;;;;5056932;28;20404;-84
2021/09/04 05:34:18;;;;;;;6.73;6.03;;;;;;;;;;5056423;28;20204;-84
2021/09/04 05:36:44;;;;;;;7.50;6.53;;;;;;;;;;5039711;28;20437;-83
2021/09/04 05:39:10;;;;;;;7.83;7.13;;;;;;;;;;5046509;28;20908;-83
2021/09/04 05:41:36;;;;;;;9.77;7.73;;;;;;;;;;5050100;28;20437;-83
2021/09/04 05:44:02;;;;;;;7.72;7.10;;;;;;;;;;5050665;28;20427;-83
2021/09/04 05:46:28;;;;;;;8.65;7.85;;;;;;;;;;5052276;28;20178;-84
2021/09/04 05:48:54;;;;;;;6.70;6.10;;;;;;;;;;5048153;28;20229;-83
2021/09/04 05:51:20;;;;;;;10.53;8.30;;;;;;;;;;5050919;28;20416;-83
2021/09/04 05:53:46;;;;;;;8.00;6.90;;;;;;;;;;5053201;28;20456;-83
2021/09/04 05:56:12;;;;;;;7.53;6.83;;;;;;;;;;5052903;28;20268;-83
2021/09/04 05:58:39;;;;;;;7.70;7.00;;;;;;;;;;5052137;28;20449;-83
2021/09/04 06:01:06;;;;;;;9.98;6.43;;;;;;;;;;5050332;28;20486;-83
2021/09/04 06:03:32;;;;;;;8.32;7.50;;;;;;;;;;5047671;28;20205;-84
2021/09/04 06:05:58;;;;;;;8.20;7.37;;;;;;;;;;5053055;28;20240;-83
2021/09/04 06:08:24;;;;;;;8.70;7.13;;;;;;;;;;5051004;28;20449;-83
2021/09/04 06:10:51;;;;;;;8.30;7.57;;;;;;;;;;5047703;28;20201;-83
2021/09/04 06:13:17;;;;;;;8.18;7.22;;;;;;;;;;5047312;28;20195;-83
2021/09/04 06:15:44;;;;;;;8.30;7.50;;;;;;;;;;5062235;28;20178;-83
2021/09/04 06:18:10;;;;;;;7.97;7.15;;;;;;;;;;5054380;28;20176;-83
2021/09/04 06:20:36;;;;;;;10.75;7.65;;;;;;;;;;5051479;28;20260;-83
2021/09/04 06:23:02;;;;;;;8.20;7.40;;;;;;;;;;5052128;28;20190;-83
2021/09/04 06:25:28;;;;;;;7.65;6.95;;;;;;;;;;5052163;28;20567;-83
2021/09/04 06:27:54;;;;;;;11.20;8.30;;;;;;;;;;5047459;28;20201;-83
2021/09/04 06:30:20;;;;;;;8.10;7.30;;;;;;;;;;5050549;28;20252;-83
2021/09/04 06:32:46;;;;;;;9.23;7.88;;;;;;;;;;5061953;28;20447;-83
2021/09/04 06:35:12;;;;;;;8.80;7.83;;;;;;;;;;5059236;28;20243;-83
2021/09/04 06:37:38;;;;;;;9.32;7.05;;;;;;;;;;5057562;28;20581;-83
2021/09/04 06:40:05;;;;;;;8.53;7.20;;;;;;;;;;5062052;28;20191;-83
2021/09/04 06:42:31;;;;;;;8.18;7.18;;;;;;;;;;5047897;28;20764;-83
2021/09/04 06:44:57;;;;;;;10.13;7.97;;;;;;;;;;5052617;28;20189;-83
2021/09/04 06:47:23;;;;;;;12.90;8.30;;;;;;;;;;5049827;28;20444;-82
2021/09/04 06:49:49;;;;;;;8.27;7.47;;;;;;;;;;5051527;28;20442;-83
2021/09/04 06:52:15;;;;;;;8.20;7.40;;;;;;;;;;5049150;28;20432;-83
2021/09/04 06:54:41;;;;;;;9.10;7.50;;;;;;;;;;5044900;28;20190;-83
2021/09/04 06:57:07;;;;;;;13.20;8.10;;;;;;;;;;5049606;28;20408;-83
2021/09/04 06:59:33;;;;;;;9.30;7.43;;;;;;;;;;5048312;28;20454;-83
2021/09/04 07:01:59;;;;;;;9.32;8.43;;;;;;;;;;5047826;28;20436;-83
2021/09/04 07:04:25;;;;;;;11.73;8.85;;;;;;;;;;5048720;28;20193;-83
2021/09/04 07:06:51;;;;;;;9.30;7.80;;;;;;;;;;5042135;28;20560;-83
2021/09/04 07:09:17;;;;;;;9.43;8.03;;;;;;;;;;5061810;28;20418;-83
2021/09/04 07:11:43;;;;;;;16.77;8.35;;;;;;;;;;5047701;28;20453;-84
2021/09/04 07:14:09;;;;;;;9.53;8.63;;;;;;;;;;5047081;28;20210;-83
2021/09/04 07:16:35;;;;;;;8.52;7.65;;;;;;;;;;5047352;28;20493;-82
2021/09/04 07:19:01;;;;;;;13.55;8.82;;;;;;;;;;5059663;28;20258;-83
2021/09/04 07:21:27;;;;;;;8.23;7.00;;;;;;;;;;5046370;28;20183;-83
2021/09/04 07:23:53;;;;;;;9.70;7.70;;;;;;;;;;5048966;28;20179;-83
2021/09/04 07:26:19;;;;;;;17.45;9.35;;;;;;;;;;5055781;28;20428;-83
2021/09/04 07:28:45;;;;;;;9.50;7.17;;;;;;;;;;5054496;28;20190;-83
2021/09/04 07:31:11;;;;;;;9.57;8.47;;;;;;;;;;5059361;28;20444;-83
2021/09/04 07:33:37;;;;;;;9.70;8.50;;;;;;;;;;5042900;28;20466;-83
2021/09/04 07:36:08;;;;;;;9.50;8.70;;;;;;;;;;5060127;28;20772;-83
2021/09/04 07:38:34;;;;;;;12.95;9.73;;;;;;;;;;5047997;28;20453;-83
2021/09/04 07:41:00;;;;;;;11.77;8.85;;;;;;;;;;5046197;28;20194;-83
2021/09/04 07:43:26;;;;;;;10.03;9.03;;;;;;;;;;5046714;28;20187;-83
2021/09/04 07:45:52;;;;;;;12.60;9.20;;;;;;;;;;5045307;28;20442;-83
2021/09/04 07:48:18;;;;;;;10.48;9.38;;;;;;;;;;5048094;28;20263;-84
2021/09/04 07:50:49;;;;;;;10.23;9.00;;;;;;;;;;5060963;28;20176;-82
2021/09/04 07:53:15;;;;;;;12.05;9.00;;;;;;;;;;5044478;28;20682;-83
2021/09/04 07:55:41;;;;;;;10.03;8.53;;;;;;;;;;5046695;28;20194;-82
2021/09/04 07:58:07;;;;;;;10.27;9.00;;;;;;;;;;5058649;28;20439;-83
2021/09/04 08:00:34;;;;;;;11.45;10.35;;;;;;;;;;5058763;28;20467;-83
2021/09/04 08:03:02;;;;;;;11.52;9.43;;;;;;;;;;5047878;28;20184;-83
2021/09/04 08:05:28;;;;;;;10.18;8.65;;;;;;;;;;5047454;28;20193;-83
2021/09/04 08:07:54;;;;;;;12.20;10.80;;;;;;;;;;5047493;28;20188;-83
2021/09/04 08:10:20;;;;;;;15.70;10.80;;;;;;;;;;5042665;28;20522;-82
2021/09/04 08:12:46;;;;;;;12.23;10.90;;;;;;;;;;5055872;28;20514;-83
2021/09/04 08:15:12;;;;;;;12.50;10.90;;;;;;;;;;5048177;28;20575;-82
2021/09/04 08:17:38;;;;;;;12.60;10.70;;;;;;;;;;5057582;28;21015;-84
2021/09/04 08:20:05;;;;;;;13.15;10.68;;;;;;;;;;5065233;28;21001;-84
2021/09/04 08:22:31;;;;;;;12.55;11.23;;;;;;;;;;5056617;28;20180;-84
2021/09/04 08:24:57;;;;;;;11.70;9.75;;;;;;;;;;5043738;28;20182;-83
2021/09/04 08:27:23;;;;;;;16.53;11.07;;;;;;;;;;5043982;28;20540;-82
2021/09/04 08:29:49;;;;;;;13.98;10.43;;;;;;;;;;5060651;28;20405;-83
2021/09/04 08:32:15;;;;;;;13.07;10.50;;;;;;;;;;5049598;28;20233;-83
2021/09/04 08:34:41;;;;;;;14.20;10.93;;;;;;;;;;5046675;28;20409;-83
2021/09/04 08:37:07;;;;;;;14.00;10.10;;;;;;;;;;5056915;28;20398;-84
2021/09/04 08:39:33;;;;;;;15.73;13.20;;;;;;;;;;5042632;28;20568;-83
2021/09/04 08:41:59;;;;;;;14.27;12.80;;;;;;;;;;5056942;28;20744;-84
2021/09/04 08:44:25;;;;;;;14.27;11.80;;;;;;;;;;5047776;28;20993;-84
2021/09/04 08:46:51;;;;;;;15.17;12.70;;;;;;;;;;5046732;28;20415;-83
2021/09/04 08:49:18;;;;;;;14.37;12.87;;;;;;;;;;5047219;28;20429;-82
2021/09/04 08:51:44;;;;;;;16.97;13.30;;;;;;;;;;5056549;28;20410;-82
2021/09/04 08:54:11;;;;;;;17.40;12.47;;;;;;;;;;5058347;28;20465;-83
2021/09/04 08:56:37;;;;;;;14.53;12.17;;;;;;;;;;5056166;28;20435;-83
2021/09/04 08:59:03;;;;;;;16.43;12.60;;;;;;;;;;5050883;28;20451;-83
2021/09/04 09:01:31;;;;;;;16.43;12.20;;;;;;;;;;5047088;28;20459;-83
2021/09/04 09:04:03;;;;;;;13.37;10.40;;;;;;;;;;5044398;28;20473;-85
2021/09/04 09:06:30;;;;;;;13.50;10.10;;;;;;;;;;5042710;28;20422;-84
2021/09/04 09:08:56;;;;;;;12.43;11.20;;;;;;;;;;5046853;28;20496;-83
2021/09/04 09:11:23;;;;;;;13.20;11.80;;;;;;;;;;5045480;28;20940;-83
2021/09/04 09:13:51;;;;;;;13.83;10.50;;;;;;;;;;5045451;28;20460;-84
2021/09/04 09:16:18;;;;;;;13.33;11.20;;;;;;;;;;5044267;28;20759;-83
2021/09/04 09:18:55;;;;;;;13.57;11.17;;;;;;;;;;5041701;28;20509;-84
2021/09/04 09:21:21;;;;;;;14.00;11.10;;;;;;;;;;5045265;28;20387;-84
2021/09/04 09:24:05;;;;;;;13.20;10.67;;;;;;;;;;5045065;28;20449;-82
2021/09/04 09:26:31;;;;;;;10.60;9.50;;;;;;;;;;5046328;28;20432;-83
2021/09/04 09:29:14;;;;;;;10.77;9.67;;;;;;;;;;5050622;28;20445;-83
2021/09/04 09:31:40;;;;;;;11.60;10.40;;;;;;;;;;5054083;28;20443;-83
2021/09/04 09:34:13;;;;;;;12.47;10.77;;;;;;;;;;5044635;28;20433;-84
2021/09/04 09:36:54;;;;;;;11.60;9.83;;;;;;;;;;5040636;28;20440;-82
2021/09/04 09:39:24;;;;;;;11.40;10.20;;;;;;;;;;5071043;28;20450;-83
2021/09/04 09:41:51;;;;;;;10.70;9.40;;;;;;;;;;5045775;28;20421;-84
2021/09/04 09:44:21;;;;;;;12.37;8.57;;;;;;;;;;5045296;28;20466;-83
2021/09/04 09:46:52;;;;;;;10.90;9.80;;;;;;;;;;5046460;28;20418;-83
2021/09/04 09:49:18;;;;;;;12.03;10.43;;;;;;;;;;5045761;28;20476;-83
2021/09/04 09:51:44;;;;;;;11.17;10.07;;;;;;;;;;5040578;28;20440;-84
2021/09/04 09:54:12;;;;;;;11.33;9.67;;;;;;;;;;5045790;28;20438;-83
2021/09/04 09:56:39;;;;;;;10.50;9.40;;;;;;;;;;5053256;28;20775;-84
2021/09/04 09:59:05;;;;;;;9.60;8.60;;;;;;;;;;5050536;28;20510;-84
2021/09/04 10:01:32;;;;;;;15.07;11.23;;;;;;;;;;5046506;28;20477;-83
2021/09/04 10:03:59;;;;;;;11.17;10.03;;;;;;;;;;5040038;28;20419;-83
2021/09/04 10:06:49;;;;;;;10.70;9.70;;;;;;;;;;5057110;28;20386;-83
2021/09/04 10:09:15;;;;;;;12.83;11.53;;;;;;;;;;5042122;28;20538;-83
2021/09/04 10:11:41;;;;;;;9.50;8.60;;;;;;;;;;5057937;28;20394;-84
2021/09/04 10:14:07;;;;;;;13.60;10.40;;;;;;;;;;5048736;28;20512;-83
2021/09/04 10:16:34;;;;;;;10.87;9.57;;;;;;;;;;5043687;28;20521;-83
2021/09/04 10:19:13;;;;;;;9.73;8.73;;;;;;;;;;5056307;28;20437;-83
2021/09/04 10:21:40;;;;;;;11.77;9.00;;;;;;;;;;5039669;28;21021;-84
2021/09/04 10:24:09;;;;;;;11.10;10.00;;;;;;;;;;5046263;28;20453;-84
2021/09/04 10:26:39;;;;;;;10.17;9.00;;;;;;;;;;5045328;28;20446;-84
2021/09/04 10:29:12;;;;;;;8.37;7.40;;;;;;;;;;5054229;28;20454;-83
2021/09/04 10:31:41;;;;;;;8.60;7.67;;;;;;;;;;5058392;28;20423;-84
2021/09/04 10:34:11;;;;;;;8.30;7.27;;;;;;;;;;5045967;28;20466;-84
2021/09/04 10:36:37;;;;;;;8.90;8.10;;;;;;;;;;5043684;28;20470;-84
2021/09/04 10:39:05;;;;;;;9.03;8.13;;;;;;;;;;5050234;28;20402;-84
2021/09/04 10:41:35;;;;;;;8.73;7.63;;;;;;;;;;5046432;28;20499;-84
2021/09/04 10:44:05;;;;;;;8.57;7.77;;;;;;;;;;5047186;28;20498;-84
2021/09/04 10:46:32;;;;;;;9.80;8.80;;;;;;;;;;5048961;28;20448;-83
2021/09/04 10:49:04;;;;;;;9.63;8.70;;;;;;;;;;5059266;28;20446;-83
2021/09/04 10:51:47;;;;;;;9.40;8.30;;;;;;;;;;5043703;28;20402;-83
2021/09/04 10:54:33;;;;;;;8.33;7.60;;;;;;;;;;5039170;28;20440;-82
2021/09/04 10:57:15;;;;;;;8.37;7.57;;;;;;;;;;5061819;28;20943;-83
2021/09/04 11:00:02;;;;;;;8.90;6.10;;;;;;;;;;5059322;28;20450;-83
2021/09/04 11:02:52;;;;;;;5.97;5.40;;;;;;;;;;5049723;28;20420;-82
2021/09/04 11:05:24;;;;;;;6.27;5.10;;;;;;;;;;5029630;28;20451;-84
2021/09/04 11:08:00;;;;;;;6.60;5.90;;;;;;;;;;5052032;28;20490;-82
2021/09/04 11:10:27;;;;;;;6.07;4.40;;;;;;;;;;5056828;28;20453;-83
2021/09/04 11:13:11;;;;;;;4.63;3.67;;;;;;;;;;5044588;28;20473;-83
2021/09/04 11:15:37;;;;;;;4.87;4.20;;;;;;;;;;5043825;28;20841;-83
2021/09/04 11:18:03;;;;;;;5.33;4.70;;;;;;;;;;5058413;28;20386;-83
2021/09/04 11:20:30;;;;;;;5.93;5.40;;;;;;;;;;5059020;28;20873;-82
2021/09/04 11:22:56;;;;;;;7.27;6.57;;;;;;;;;;5053022;28;20678;-83
2021/09/04 11:25:23;;;;;;;8.90;7.47;;;;;;;;;;5047024;28;20467;-82
2021/09/04 11:27:49;;;;;;;8.90;8.10;;;;;;;;;;5042697;28;20419;-83
2021/09/04 11:30:16;;;;;;;7.43;6.77;;;;;;;;;;5047859;28;20420;-83
2021/09/04 11:32:42;;;;;;;10.27;8.83;;;;;;;;;;5059834;28;20463;-83
2021/09/04 11:35:10;;;;;;;9.30;7.40;;;;;;;;;;5046979;28;20436;-83
2021/09/04 11:37:40;;;;;;;8.13;7.33;;;;;;;;;;5056883;28;20869;-82
2021/09/04 11:40:09;;;;;;;8.57;7.67;;;;;;;;;;5046307;28;20463;-83
2021/09/04 11:42:40;;;;;;;8.03;7.27;;;;;;;;;;5043756;28;20444;-83
2021/09/04 11:45:09;;;;;;;9.40;8.50;;;;;;;;;;5048201;28;20905;-84
2021/09/04 11:47:36;;;;;;;9.80;7.80;;;;;;;;;;5048005;28;20413;-82
2021/09/04 11:50:03;;;;;;;8.37;7.57;;;;;;;;;;5047360;28;20481;-83
2021/09/04 11:52:30;;;;;;;10.40;8.50;;;;;;;;;;5045150;28;20469;-85
2021/09/04 11:55:06;;;;;;;10.03;8.93;;;;;;;;;;5057364;28;20439;-83
2021/09/04 11:57:33;;;;;;;10.80;9.43;;;;;;;;;;5042411;28;20596;-82
2021/09/04 12:00:13;;;;;;;10.80;9.30;;;;;;;;;;5050367;28;20416;-83
2021/09/04 12:02:55;;;;;;;11.43;10.20;;;;;;;;;;5047905;28;20435;-83
2021/09/04 12:05:22;;;;;;;14.00;12.50;;;;;;;;;;5047164;28;20443;-83
2021/09/04 12:07:49;;;;;;;11.93;10.43;;;;;;;;;;5047309;28;20430;-83
2021/09/04 12:10:21;;;;;;;11.20;9.03;;;;;;;;;;5058873;28;20436;-82
2021/09/04 12:12:51;;;;;;;12.33;10.80;;;;;;;;;;5041708;28;20477;-83
2021/09/04 12:15:17;;;;;;;10.00;9.00;;;;;;;;;;5046383;28;20418;-83
2021/09/04 12:17:50;;;;;;;11.30;10.20;;;;;;;;;;5046755;28;20423;-83
2021/09/04 12:20:17;;;;;;;9.23;8.13;;;;;;;;;;5047255;28;20545;-84
2021/09/04 12:22:43;;;;;;;9.07;8.17;;;;;;;;;;5046184;28;20439;-83
2021/09/04 12:25:25;;;;;;;9.77;8.57;;;;;;;;;;5058435;28;20468;-84
2021/09/04 12:27:57;;;;;;;9.47;7.87;;;;;;;;;;5042752;28;20452;-84
2021/09/04 12:30:26;;;;;;;8.73;7.83;;;;;;;;;;5046050;28;20426;-84
2021/09/04 12:33:01;;;;;;;7.80;7.07;;;;;;;;;;5046305;28;20487;-84
2021/09/04 12:35:46;;;;;;;9.27;6.77;;;;;;;;;;5045105;28;20439;-83
2021/09/04 12:38:23;;;;;;;8.10;7.30;;;;;;;;;;5046897;28;20462;-83
2021/09/04 12:41:06;;;;;;;8.93;8.13;;;;;;;;;;5044844;28;20448;-83
2021/09/04 12:43:32;;;;;;;8.77;7.97;;;;;;;;;;5046406;28;20450;-85
2021/09/04 12:46:02;;;;;;;12.70;8.30;;;;;;;;;;5043644;28;20486;-83
2021/09/04 12:48:29;;;;;;;8.53;7.73;;;;;;;;;;5043123;28;20847;-84
2021/09/04 12:51:08;;;;;;;11.57;10.47;;;;;;;;;;5046336;28;20455;-82
2021/09/04 12:53:34;;;;;;;8.70;7.77;;;;;;;;;;5046292;28;20686;-83
2021/09/04 12:56:00;;;;;;;9.00;8.20;;;;;;;;;;5046684;28;20447;-83
2021/09/04 12:58:26;;;;;;;9.40;8.60;;;;;;;;;;5046236;28;20858;-83
2021/09/04 13:01:05;;;;;;;8.90;8.10;;;;;;;;;;5041303;28;20467;-83
2021/09/04 13:03:31;;;;;;;8.80;8.13;;;;;;;;;;5043371;28;20420;-83
2021/09/04 13:05:57;;;;;;;10.30;9.33;;;;;;;;;;5060752;28;20462;-84
2021/09/04 13:08:23;;;;;;;10.00;9.10;;;;;;;;;;5051651;28;20439;-83
2021/09/04 13:10:49;;;;;;;10.53;8.70;;;;;;;;;;5051285;28;20440;-84
2021/09/04 13:13:15;;;;;;;10.07;9.17;;;;;;;;;;5045089;28;20972;-85
2021/09/04 13:15:41;;;;;;;11.00;10.00;;;;;;;;;;5039528;28;20429;-86
2021/09/04 13:18:08;;;;;;;9.53;8.63;;;;;;;;;;5047165;28;20418;-84
2021/09/04 13:20:34;;;;;;;9.37;7.37;;;;;;;;;;5045577;28;20856;-83
2021/09/04 13:23:00;;;;;;;11.67;7.37;;;;;;;;;;5046048;28;20440;-83
2021/09/04 13:25:26;;;;;;;13.43;7.73;;;;;;;;;;5046190;28;20472;-84
2021/09/04 13:27:52;;;;;;;5.10;4.70;;;;;;;;;;5042994;28;20442;-83
2021/09/04 13:30:18;;;;;;;4.80;4.30;;;;;;;;;;5061293;28;20419;-84
2021/09/04 13:32:44;;;;;;;4.63;4.23;;;;;;;;;;5047065;28;20654;-83
2021/09/04 13:35:11;;;;;;;3.80;3.50;;;;;;;;;;5045929;28;20436;-83
2021/09/04 13:37:37;;;;;;;3.93;3.63;;;;;;;;;;5049015;28;20800;-82
2021/09/04 13:40:04;;;;;;;3.50;3.20;;;;;;;;;;5057823;28;20514;-84
2021/09/04 13:42:30;;;;;;;3.50;2.80;;;;;;;;;;5043715;28;20415;-83
2021/09/04 13:44:56;;;;;;;3.00;2.80;;;;;;;;;;5045909;28;20424;-84
2021/09/04 13:47:22;;;;;;;3.70;2.70;;;;;;;;;;5045967;28;20458;-83
2021/09/04 13:49:48;;;;;;;2.70;2.47;;;;;;;;;;5044492;28;20483;-83
2021/09/04 13:52:15;;;;;;;3.27;2.70;;;;;;;;;;5057337;28;20424;-83
2021/09/04 13:54:41;;;;;;;4.00;2.87;;;;;;;;;;5040710;28;20464;-83
2021/09/04 13:57:06;;;;;;;2.90;2.70;;;;;;;;;;5062897;28;20473;-84
2021/09/04 13:59:32;;;;;;;3.47;3.17;;;;;;;;;;5044813;28;20479;-83
2021/09/04 14:01:58;;;;;;;3.43;3.13;;;;;;;;;;5046218;28;20438;-83
2021/09/04 14:04:24;;;;;;;3.30;2.93;;;;;;;;;;5047811;28;20457;-84
2021/09/04 14:06:50;;;;;;;2.87;2.67;;;;;;;;;;5045379;28;20523;-83
2021/09/04 14:09:16;;;;;;;3.97;2.33;;;;;;;;;;5065799;28;20423;-84
2021/09/04 14:11:42;;;;;;;3.10;2.23;;;;;;;;;;5050760;28;20416;-84
2021/09/04 14:14:08;;;;;;;2.67;2.13;;;;;;;;;;5048672;28;20468;-83
2021/09/04 14:16:34;;;;;;;3.13;2.50;;;;;;;;;;5049435;28;20477;-83
2021/09/04 14:19:00;;;;;;;3.07;2.77;;;;;;;;;;5046127;28;20441;-83
2021/09/04 14:21:26;;;;;;;2.90;2.70;;;;;;;;;;5046472;28;20458;-84
2021/09/04 14:23:52;;;;;;;2.87;2.67;;;;;;;;;;5050426;28;20435;-84
2021/09/04 14:26:18;;;;;;;2.73;2.53;;;;;;;;;;5049516;28;20434;-83
2021/09/04 14:28:44;;;;;;;3.07;2.50;;;;;;;;;;5047393;28;20470;-83
2021/09/04 14:31:10;;;;;;;4.10;3.37;;;;;;;;;;5048740;28;20449;-84
2021/09/04 14:33:36;;;;;;;3.07;2.87;;;;;;;;;;5045876;28;20482;-83
2021/09/04 14:36:02;;;;;;;3.10;2.80;;;;;;;;;;5049993;28;20416;-83
2021/09/04 14:38:29;;;;;;;3.50;3.20;;;;;;;;;;5049814;28;20930;-83